Terminal Aerodrome Forecast
Issued by NWS

Home | Current Version | Previous Version | Text Only | Print | Product List | Glossary On
Versions: 1 2 3 4 5 6 7 8 9 10 11 12 13
000
FTUS45 KVEF 201700
TAFVGT
TAF
KVGT 201738Z 2018/2118 VRB06KT P6SM BKN100
     FM210000 12007KT P6SM VCTS SCT080CB BKN100
      TEMPO 2100/2104 -TSRA BKN060CB
     FM210600 34005KT P6SM -SHRA VCTS SCT050CB BKN080
     FM211000 34005KT P6SM VCSH BKN080=

USA.gov is the U.S. government's official web portal to all federal, state and local government web resources and services.